Epping, New Hampshire
Current Conditions -  °F | °C
As of 12:58 PM on Thursday 23 Oct 2014 (Local Time) from KPSM Reporting Station
Light Rain Light Rain  
Wind Chill: 52°   Ceiling: 800
Heat Index: 52°   Visibility: 2.7mi
Dew Point: 49°   Wind: 21mph
Humidity: 91%   Direction: 20°NNE
Pressure: 29.66"   Gusts: 35mph
Location:  43.04°N, 71.08°W
Report Text: KPSM 231658Z 02018G30KT 2 3/4SM -RA BR OVC008 11/10 A2966 RMK AO2A VIS 2V3 SLP048 P0004 T01100096
Loading
Personal Weather Stations






























Interactive Weather Map
Tropical Storm Tracking
New forecast layout! Learn more

10-Day Weather Forecast

Advertisements
Track Severe Weather on mobile